sensor_id;sensor_type;location;lat;lon;timestamp;P1;durP1;ratioP1;P2;durP2;ratioP2
53207;SDS011;39093;52.788;6.940;2022-08-19T00:01:55;7.95;;;6.47;;
53207;SDS011;39093;52.788;6.940;2022-08-19T00:04:26;6.78;;;6.10;;
53207;SDS011;39093;52.788;6.940;2022-08-19T00:06:56;6.63;;;5.75;;
53207;SDS011;39093;52.788;6.940;2022-08-19T00:09:24;11.20;;;6.22;;
53207;SDS011;39093;52.788;6.940;2022-08-19T00:11:52;6.75;;;5.95;;
53207;SDS011;39093;52.788;6.940;2022-08-19T00:14:22;8.85;;;6.50;;
53207;SDS011;39093;52.788;6.940;2022-08-19T00:16:50;7.22;;;6.43;;
53207;SDS011;39093;52.788;6.940;2022-08-19T00:19:21;7.80;;;6.95;;
53207;SDS011;39093;52.788;6.940;2022-08-19T00:21:50;14.23;;;6.57;;
53207;SDS011;39093;52.788;6.940;2022-08-19T00:24:17;10.32;;;6.07;;
53207;SDS011;39093;52.788;6.940;2022-08-19T00:26:44;13.88;;;6.13;;
53207;SDS011;39093;52.788;6.940;2022-08-19T00:29:12;8.50;;;6.50;;
53207;SDS011;39093;52.788;6.940;2022-08-19T00:31:41;7.50;;;6.68;;
53207;SDS011;39093;52.788;6.940;2022-08-19T00:34:09;7.47;;;6.78;;
53207;SDS011;39093;52.788;6.940;2022-08-19T00:36:38;13.02;;;7.72;;
53207;SDS011;39093;52.788;6.940;2022-08-19T00:39:05;8.30;;;7.20;;
53207;SDS011;39093;52.788;6.940;2022-08-19T00:41:32;8.82;;;7.97;;
53207;SDS011;39093;52.788;6.940;2022-08-19T00:44:10;9.80;;;8.25;;
53207;SDS011;39093;52.788;6.940;2022-08-19T00:46:40;10.30;;;8.43;;
53207;SDS011;39093;52.788;6.940;2022-08-19T00:51:45;18.42;;;8.95;;
53207;SDS011;39093;52.788;6.940;2022-08-19T00:54:16;10.85;;;8.98;;
53207;SDS011;39093;52.788;6.940;2022-08-19T00:56:54;10.20;;;8.73;;
53207;SDS011;39093;52.788;6.940;2022-08-19T00:59:22;11.10;;;10.00;;
53207;SDS011;39093;52.788;6.940;2022-08-19T01:02:10;10.55;;;9.27;;
53207;SDS011;39093;52.788;6.940;2022-08-19T01:04:37;13.20;;;9.77;;
53207;SDS011;39093;52.788;6.940;2022-08-19T01:07:04;10.85;;;9.48;;
53207;SDS011;39093;52.788;6.940;2022-08-19T01:09:31;10.88;;;9.85;;
53207;SDS011;39093;52.788;6.940;2022-08-19T01:11:58;11.02;;;9.93;;
53207;SDS011;39093;52.788;6.940;2022-08-19T01:14:25;11.07;;;9.93;;
53207;SDS011;39093;52.788;6.940;2022-08-19T01:16:52;11.63;;;10.43;;
53207;SDS011;39093;52.788;6.940;2022-08-19T01:19:24;10.68;;;9.73;;
53207;SDS011;39093;52.788;6.940;2022-08-19T01:21:57;12.40;;;11.10;;
53207;SDS011;39093;52.788;6.940;2022-08-19T01:24:42;13.45;;;10.65;;
53207;SDS011;39093;52.788;6.940;2022-08-19T01:27:15;15.77;;;10.82;;
53207;SDS011;39093;52.788;6.940;2022-08-19T01:29:43;12.52;;;10.80;;
53207;SDS011;39093;52.788;6.940;2022-08-19T01:32:12;14.15;;;10.32;;
53207;SDS011;39093;52.788;6.940;2022-08-19T01:34:58;11.30;;;10.10;;
53207;SDS011;39093;52.788;6.940;2022-08-19T01:37:28;13.23;;;11.23;;
53207;SDS011;39093;52.788;6.940;2022-08-19T01:39:57;13.27;;;10.57;;
53207;SDS011;39093;52.788;6.940;2022-08-19T01:42:24;11.55;;;10.20;;
53207;SDS011;39093;52.788;6.940;2022-08-19T01:44:56;12.77;;;11.40;;
53207;SDS011;39093;52.788;6.940;2022-08-19T01:47:24;14.23;;;10.82;;
53207;SDS011;39093;52.788;6.940;2022-08-19T01:49:51;13.88;;;10.90;;
53207;SDS011;39093;52.788;6.940;2022-08-19T01:52:17;11.38;;;10.25;;
53207;SDS011;39093;52.788;6.940;2022-08-19T01:54:45;11.88;;;10.70;;
53207;SDS011;39093;52.788;6.940;2022-08-19T01:57:12;14.93;;;10.60;;
53207;SDS011;39093;52.788;6.940;2022-08-19T01:59:40;11.85;;;10.25;;
53207;SDS011;39093;52.788;6.940;2022-08-19T02:02:09;14.52;;;10.82;;
53207;SDS011;39093;52.788;6.940;2022-08-19T02:04:36;11.02;;;9.93;;
53207;SDS011;39093;52.788;6.940;2022-08-19T02:07:04;12.32;;;10.93;;
53207;SDS011;39093;52.788;6.940;2022-08-19T02:09:34;13.95;;;10.55;;
53207;SDS011;39093;52.788;6.940;2022-08-19T02:12:01;10.93;;;9.82;;
53207;SDS011;39093;52.788;6.940;2022-08-19T02:14:29;11.75;;;10.07;;
53207;SDS011;39093;52.788;6.940;2022-08-19T02:16:55;14.82;;;10.85;;
53207;SDS011;39093;52.788;6.940;2022-08-19T02:19:22;13.90;;;10.82;;
53207;SDS011;39093;52.788;6.940;2022-08-19T02:21:49;12.32;;;10.63;;
53207;SDS011;39093;52.788;6.940;2022-08-19T02:24:16;12.18;;;10.85;;
53207;SDS011;39093;52.788;6.940;2022-08-19T02:26:43;13.68;;;11.98;;
53207;SDS011;39093;52.788;6.940;2022-08-19T02:29:10;13.18;;;11.02;;
53207;SDS011;39093;52.788;6.940;2022-08-19T02:31:37;15.52;;;11.55;;
53207;SDS011;39093;52.788;6.940;2022-08-19T02:34:04;13.52;;;11.80;;
53207;SDS011;39093;52.788;6.940;2022-08-19T02:36:30;13.15;;;11.43;;
53207;SDS011;39093;52.788;6.940;2022-08-19T02:38:58;13.75;;;12.13;;
53207;SDS011;39093;52.788;6.940;2022-08-19T02:41:26;13.32;;;11.45;;
53207;SDS011;39093;52.788;6.940;2022-08-19T02:43:55;12.73;;;11.43;;
53207;SDS011;39093;52.788;6.940;2022-08-19T02:46:45;13.05;;;11.73;;
53207;SDS011;39093;52.788;6.940;2022-08-19T02:49:13;13.80;;;11.25;;
53207;SDS011;39093;52.788;6.940;2022-08-19T02:51:43;14.90;;;10.90;;
53207;SDS011;39093;52.788;6.940;2022-08-19T02:54:12;14.77;;;11.20;;
53207;SDS011;39093;52.788;6.940;2022-08-19T02:56:40;11.90;;;10.70;;
53207;SDS011;39093;52.788;6.940;2022-08-19T02:59:08;12.88;;;10.60;;
53207;SDS011;39093;52.788;6.940;2022-08-19T03:01:37;16.60;;;12.40;;
53207;SDS011;39093;52.788;6.940;2022-08-19T03:04:07;13.40;;;11.98;;
53207;SDS011;39093;52.788;6.940;2022-08-19T03:06:40;13.35;;;11.38;;
53207;SDS011;39093;52.788;6.940;2022-08-19T03:09:09;13.80;;;11.25;;
53207;SDS011;39093;52.788;6.940;2022-08-19T03:11:37;14.68;;;11.07;;
53207;SDS011;39093;52.788;6.940;2022-08-19T03:14:05;14.73;;;11.43;;
53207;SDS011;39093;52.788;6.940;2022-08-19T03:16:34;13.50;;;11.25;;
53207;SDS011;39093;52.788;6.940;2022-08-19T03:19:07;16.02;;;11.88;;
53207;SDS011;39093;52.788;6.940;2022-08-19T03:21:34;11.52;;;10.20;;
53207;SDS011;39093;52.788;6.940;2022-08-19T03:24:03;12.05;;;10.73;;
53207;SDS011;39093;52.788;6.940;2022-08-19T03:26:32;12.75;;;11.38;;
53207;SDS011;39093;52.788;6.940;2022-08-19T03:29:04;12.55;;;11.25;;
53207;SDS011;39093;52.788;6.940;2022-08-19T03:31:31;12.10;;;10.85;;
53207;SDS011;39093;52.788;6.940;2022-08-19T03:34:16;14.18;;;12.40;;
53207;SDS011;39093;52.788;6.940;2022-08-19T03:36:47;13.80;;;11.90;;
53207;SDS011;39093;52.788;6.940;2022-08-19T03:39:14;13.75;;;12.27;;
53207;SDS011;39093;52.788;6.940;2022-08-19T03:41:42;14.52;;;11.52;;
53207;SDS011;39093;52.788;6.940;2022-08-19T03:44:13;15.45;;;11.73;;
53207;SDS011;39093;52.788;6.940;2022-08-19T03:46:44;16.70;;;12.18;;
53207;SDS011;39093;52.788;6.940;2022-08-19T03:49:12;13.57;;;11.27;;
53207;SDS011;39093;52.788;6.940;2022-08-19T03:51:40;17.45;;;13.77;;
53207;SDS011;39093;52.788;6.940;2022-08-19T03:54:09;17.13;;;12.40;;
53207;SDS011;39093;52.788;6.940;2022-08-19T03:56:39;18.42;;;12.95;;
53207;SDS011;39093;52.788;6.940;2022-08-19T03:59:09;14.00;;;12.32;;
53207;SDS011;39093;52.788;6.940;2022-08-19T04:01:41;15.18;;;12.57;;
53207;SDS011;39093;52.788;6.940;2022-08-19T04:04:08;18.52;;;13.77;;
53207;SDS011;39093;52.788;6.940;2022-08-19T04:06:36;15.27;;;12.68;;
53207;SDS011;39093;52.788;6.940;2022-08-19T04:09:07;16.77;;;12.90;;
53207;SDS011;39093;52.788;6.940;2022-08-19T04:11:36;18.27;;;13.27;;
53207;SDS011;39093;52.788;6.940;2022-08-19T04:14:12;18.50;;;13.10;;
53207;SDS011;39093;52.788;6.940;2022-08-19T04:16:40;14.25;;;12.35;;
53207;SDS011;39093;52.788;6.940;2022-08-19T04:19:10;16.95;;;12.85;;
53207;SDS011;39093;52.788;6.940;2022-08-19T04:21:38;14.45;;;12.57;;
53207;SDS011;39093;52.788;6.940;2022-08-19T04:24:05;18.65;;;12.40;;
53207;SDS011;39093;52.788;6.940;2022-08-19T04:26:34;15.27;;;12.98;;
53207;SDS011;39093;52.788;6.940;2022-08-19T04:29:06;17.45;;;14.35;;
53207;SDS011;39093;52.788;6.940;2022-08-19T04:31:38;19.38;;;13.20;;
53207;SDS011;39093;52.788;6.940;2022-08-19T04:34:07;16.25;;;12.73;;
53207;SDS011;39093;52.788;6.940;2022-08-19T04:36:40;16.92;;;13.88;;
53207;SDS011;39093;52.788;6.940;2022-08-19T04:39:15;15.80;;;13.00;;
53207;SDS011;39093;52.788;6.940;2022-08-19T04:41:44;20.23;;;13.73;;
53207;SDS011;39093;52.788;6.940;2022-08-19T04:44:33;15.90;;;14.07;;
53207;SDS011;39093;52.788;6.940;2022-08-19T04:47:10;17.92;;;13.90;;
53207;SDS011;39093;52.788;6.940;2022-08-19T04:49:37;19.13;;;16.33;;
53207;SDS011;39093;52.788;6.940;2022-08-19T04:52:04;23.63;;;14.43;;
53207;SDS011;39093;52.788;6.940;2022-08-19T04:54:31;21.00;;;15.52;;
53207;SDS011;39093;52.788;6.940;2022-08-19T04:59:33;21.13;;;14.95;;
53207;SDS011;39093;52.788;6.940;2022-08-19T05:02:00;17.15;;;14.30;;
53207;SDS011;39093;52.788;6.940;2022-08-19T05:04:27;19.98;;;15.65;;
53207;SDS011;39093;52.788;6.940;2022-08-19T05:06:58;20.17;;;15.48;;
53207;SDS011;39093;52.788;6.940;2022-08-19T05:09:28;21.27;;;16.50;;
53207;SDS011;39093;52.788;6.940;2022-08-19T05:12:16;21.13;;;16.15;;
53207;SDS011;39093;52.788;6.940;2022-08-19T05:14:43;23.42;;;17.63;;
53207;SDS011;39093;52.788;6.940;2022-08-19T05:17:12;31.10;;;18.60;;
53207;SDS011;39093;52.788;6.940;2022-08-19T05:20:00;23.45;;;17.65;;
53207;SDS011;39093;52.788;6.940;2022-08-19T05:22:46;21.05;;;15.10;;
53207;SDS011;39093;52.788;6.940;2022-08-19T05:25:15;21.83;;;15.80;;
53207;SDS011;39093;52.788;6.940;2022-08-19T05:27:45;18.30;;;16.13;;
53207;SDS011;39093;52.788;6.940;2022-08-19T05:30:12;17.98;;;15.25;;
53207;SDS011;39093;52.788;6.940;2022-08-19T05:32:40;22.00;;;16.30;;
53207;SDS011;39093;52.788;6.940;2022-08-19T05:35:07;20.25;;;16.98;;
53207;SDS011;39093;52.788;6.940;2022-08-19T05:37:34;20.20;;;16.45;;
53207;SDS011;39093;52.788;6.940;2022-08-19T05:40:01;21.60;;;17.00;;
53207;SDS011;39093;52.788;6.940;2022-08-19T05:42:29;24.38;;;15.68;;
53207;SDS011;39093;52.788;6.940;2022-08-19T05:44:56;19.83;;;14.98;;
53207;SDS011;39093;52.788;6.940;2022-08-19T05:47:23;20.75;;;15.65;;
53207;SDS011;39093;52.788;6.940;2022-08-19T05:49:50;22.20;;;16.38;;
53207;SDS011;39093;52.788;6.940;2022-08-19T05:52:17;22.73;;;16.65;;
53207;SDS011;39093;52.788;6.940;2022-08-19T05:54:51;22.05;;;16.50;;
53207;SDS011;39093;52.788;6.940;2022-08-19T05:57:21;24.55;;;17.27;;
53207;SDS011;39093;52.788;6.940;2022-08-19T05:59:49;27.40;;;17.92;;
53207;SDS011;39093;52.788;6.940;2022-08-19T06:02:23;22.85;;;17.77;;
53207;SDS011;39093;52.788;6.940;2022-08-19T06:04:51;22.08;;;17.27;;
53207;SDS011;39093;52.788;6.940;2022-08-19T06:07:18;24.58;;;17.35;;
53207;SDS011;39093;52.788;6.940;2022-08-19T06:09:45;21.45;;;17.15;;
53207;SDS011;39093;52.788;6.940;2022-08-19T06:12:30;19.42;;;16.15;;
53207;SDS011;39093;52.788;6.940;2022-08-19T06:15:00;23.77;;;17.58;;
53207;SDS011;39093;52.788;6.940;2022-08-19T06:17:30;17.83;;;14.90;;
53207;SDS011;39093;52.788;6.940;2022-08-19T06:19:58;21.92;;;16.08;;
53207;SDS011;39093;52.788;6.940;2022-08-19T06:22:26;24.48;;;15.77;;
53207;SDS011;39093;52.788;6.940;2022-08-19T06:24:54;20.42;;;15.48;;
53207;SDS011;39093;52.788;6.940;2022-08-19T06:27:22;19.40;;;14.25;;
53207;SDS011;39093;52.788;6.940;2022-08-19T06:29:49;19.98;;;14.77;;
53207;SDS011;39093;52.788;6.940;2022-08-19T06:32:16;18.92;;;14.55;;
53207;SDS011;39093;52.788;6.940;2022-08-19T06:34:45;21.27;;;15.07;;
53207;SDS011;39093;52.788;6.940;2022-08-19T06:37:12;17.40;;;14.27;;
53207;SDS011;39093;52.788;6.940;2022-08-19T06:39:40;21.80;;;15.13;;
53207;SDS011;39093;52.788;6.940;2022-08-19T06:42:09;20.70;;;13.82;;
53207;SDS011;39093;52.788;6.940;2022-08-19T06:44:40;20.45;;;12.55;;
53207;SDS011;39093;52.788;6.940;2022-08-19T06:47:14;16.58;;;13.98;;
53207;SDS011;39093;52.788;6.940;2022-08-19T06:49:52;18.58;;;13.00;;
53207;SDS011;39093;52.788;6.940;2022-08-19T06:52:31;17.38;;;13.80;;
53207;SDS011;39093;52.788;6.940;2022-08-19T06:55:04;19.20;;;13.85;;
53207;SDS011;39093;52.788;6.940;2022-08-19T06:57:32;16.90;;;12.98;;
53207;SDS011;39093;52.788;6.940;2022-08-19T07:00:00;18.73;;;13.27;;
53207;SDS011;39093;52.788;6.940;2022-08-19T07:02:27;13.85;;;11.35;;
53207;SDS011;39093;52.788;6.940;2022-08-19T07:04:54;17.10;;;12.25;;
53207;SDS011;39093;52.788;6.940;2022-08-19T07:07:24;14.85;;;10.45;;
53207;SDS011;39093;52.788;6.940;2022-08-19T07:09:51;12.75;;;10.18;;
53207;SDS011;39093;52.788;6.940;2022-08-19T07:12:25;12.32;;;9.13;;
53207;SDS011;39093;52.788;6.940;2022-08-19T07:14:56;12.00;;;9.35;;
53207;SDS011;39093;52.788;6.940;2022-08-19T07:17:24;10.10;;;8.90;;
53207;SDS011;39093;52.788;6.940;2022-08-19T07:19:52;12.95;;;8.68;;
53207;SDS011;39093;52.788;6.940;2022-08-19T07:22:20;12.02;;;7.85;;
53207;SDS011;39093;52.788;6.940;2022-08-19T07:24:50;9.65;;;8.45;;
53207;SDS011;39093;52.788;6.940;2022-08-19T07:27:18;11.68;;;7.60;;
53207;SDS011;39093;52.788;6.940;2022-08-19T07:29:49;14.93;;;8.07;;
53207;SDS011;39093;52.788;6.940;2022-08-19T07:32:23;8.38;;;7.57;;
53207;SDS011;39093;52.788;6.940;2022-08-19T07:34:53;10.55;;;7.65;;
53207;SDS011;39093;52.788;6.940;2022-08-19T07:37:22;8.88;;;7.32;;
53207;SDS011;39093;52.788;6.940;2022-08-19T07:39:58;11.45;;;7.60;;
53207;SDS011;39093;52.788;6.940;2022-08-19T07:42:25;7.93;;;7.03;;
53207;SDS011;39093;52.788;6.940;2022-08-19T07:44:52;8.68;;;6.10;;
53207;SDS011;39093;52.788;6.940;2022-08-19T07:47:19;9.60;;;6.70;;
53207;SDS011;39093;52.788;6.940;2022-08-19T07:50:08;10.80;;;6.55;;
53207;SDS011;39093;52.788;6.940;2022-08-19T07:52:37;7.63;;;6.53;;
53207;SDS011;39093;52.788;6.940;2022-08-19T07:55:07;7.45;;;5.97;;
53207;SDS011;39093;52.788;6.940;2022-08-19T07:57:56;8.32;;;7.15;;
53207;SDS011;39093;52.788;6.940;2022-08-19T08:00:24;7.85;;;6.35;;
53207;SDS011;39093;52.788;6.940;2022-08-19T08:02:51;7.75;;;5.85;;
53207;SDS011;39093;52.788;6.940;2022-08-19T08:05:21;11.48;;;6.85;;
53207;SDS011;39093;52.788;6.940;2022-08-19T08:08:09;6.85;;;5.95;;
53207;SDS011;39093;52.788;6.940;2022-08-19T08:10:56;8.50;;;6.93;;
53207;SDS011;39093;52.788;6.940;2022-08-19T08:13:23;13.32;;;8.15;;
53207;SDS011;39093;52.788;6.940;2022-08-19T08:15:51;9.43;;;7.55;;
53207;SDS011;39093;52.788;6.940;2022-08-19T08:18:21;9.10;;;8.18;;
53207;SDS011;39093;52.788;6.940;2022-08-19T08:20:53;8.55;;;6.93;;
53207;SDS011;39093;52.788;6.940;2022-08-19T08:23:21;9.27;;;7.28;;
53207;SDS011;39093;52.788;6.940;2022-08-19T08:25:52;8.55;;;7.47;;
53207;SDS011;39093;52.788;6.940;2022-08-19T08:28:21;8.52;;;7.53;;
53207;SDS011;39093;52.788;6.940;2022-08-19T08:30:49;9.50;;;7.30;;
53207;SDS011;39093;52.788;6.940;2022-08-19T08:33:21;8.45;;;6.82;;
53207;SDS011;39093;52.788;6.940;2022-08-19T08:35:58;12.85;;;8.05;;
53207;SDS011;39093;52.788;6.940;2022-08-19T08:38:25;9.50;;;7.32;;
53207;SDS011;39093;52.788;6.940;2022-08-19T08:40:57;13.38;;;8.70;;
53207;SDS011;39093;52.788;6.940;2022-08-19T08:43:50;10.25;;;7.38;;
53207;SDS011;39093;52.788;6.940;2022-08-19T08:46:53;10.48;;;9.18;;
53207;SDS011;39093;52.788;6.940;2022-08-19T08:49:33;14.77;;;9.88;;
53207;SDS011;39093;52.788;6.940;2022-08-19T08:54:59;10.90;;;9.57;;
53207;SDS011;39093;52.788;6.940;2022-08-19T08:57:41;10.70;;;8.77;;
53207;SDS011;39093;52.788;6.940;2022-08-19T09:00:15;9.85;;;8.43;;
53207;SDS011;39093;52.788;6.940;2022-08-19T09:02:48;7.95;;;7.15;;
53207;SDS011;39093;52.788;6.940;2022-08-19T09:05:18;11.65;;;7.95;;
53207;SDS011;39093;52.788;6.940;2022-08-19T09:08:07;9.82;;;7.97;;
53207;SDS011;39093;52.788;6.940;2022-08-19T09:16:14;10.88;;;9.70;;
53207;SDS011;39093;52.788;6.940;2022-08-19T09:18:51;13.47;;;9.70;;
53207;SDS011;39093;52.788;6.940;2022-08-19T09:21:21;10.80;;;8.05;;
53207;SDS011;39093;52.788;6.940;2022-08-19T09:23:58;14.45;;;9.50;;
53207;SDS011;39093;52.788;6.940;2022-08-19T09:26:25;9.32;;;8.32;;
53207;SDS011;39093;52.788;6.940;2022-08-19T09:29:13;12.30;;;7.50;;
53207;SDS011;39093;52.788;6.940;2022-08-19T09:31:42;7.97;;;7.07;;
53207;SDS011;39093;52.788;6.940;2022-08-19T09:34:09;14.00;;;8.75;;
53207;SDS011;39093;52.788;6.940;2022-08-19T09:36:47;9.55;;;8.10;;
53207;SDS011;39093;52.788;6.940;2022-08-19T09:39:16;9.02;;;7.28;;
53207;SDS011;39093;52.788;6.940;2022-08-19T09:41:43;7.07;;;5.53;;
53207;SDS011;39093;52.788;6.940;2022-08-19T09:44:14;9.27;;;6.80;;
53207;SDS011;39093;52.788;6.940;2022-08-19T09:46:43;9.93;;;8.75;;
53207;SDS011;39093;52.788;6.940;2022-08-19T09:49:10;8.57;;;7.32;;
53207;SDS011;39093;52.788;6.940;2022-08-19T09:51:38;7.40;;;6.20;;
53207;SDS011;39093;52.788;6.940;2022-08-19T09:54:06;9.80;;;6.35;;
53207;SDS011;39093;52.788;6.940;2022-08-19T09:56:36;9.55;;;6.75;;
53207;SDS011;39093;52.788;6.940;2022-08-19T09:59:03;7.75;;;6.50;;
53207;SDS011;39093;52.788;6.940;2022-08-19T10:01:31;8.32;;;7.45;;
53207;SDS011;39093;52.788;6.940;2022-08-19T10:04:00;9.30;;;6.57;;
53207;SDS011;39093;52.788;6.940;2022-08-19T10:06:45;7.70;;;6.03;;
53207;SDS011;39093;52.788;6.940;2022-08-19T10:09:19;8.90;;;5.95;;
53207;SDS011;39093;52.788;6.940;2022-08-19T10:11:59;8.43;;;5.30;;
53207;SDS011;39093;52.788;6.940;2022-08-19T10:14:27;6.25;;;4.40;;
53207;SDS011;39093;52.788;6.940;2022-08-19T10:16:55;4.95;;;4.22;;
53207;SDS011;39093;52.788;6.940;2022-08-19T10:19:24;6.18;;;5.13;;
53207;SDS011;39093;52.788;6.940;2022-08-19T10:21:52;10.57;;;5.63;;
53207;SDS011;39093;52.788;6.940;2022-08-19T10:24:25;7.22;;;5.03;;
53207;SDS011;39093;52.788;6.940;2022-08-19T10:26:54;9.30;;;6.05;;
53207;SDS011;39093;52.788;6.940;2022-08-19T10:29:24;7.97;;;5.38;;
53207;SDS011;39093;52.788;6.940;2022-08-19T10:31:58;5.78;;;4.63;;
53207;SDS011;39093;52.788;6.940;2022-08-19T10:34:38;6.00;;;5.00;;
53207;SDS011;39093;52.788;6.940;2022-08-19T10:37:14;5.43;;;4.78;;
53207;SDS011;39093;52.788;6.940;2022-08-19T10:39:56;5.85;;;4.70;;
53207;SDS011;39093;52.788;6.940;2022-08-19T10:42:23;8.32;;;5.10;;
53207;SDS011;39093;52.788;6.940;2022-08-19T10:44:51;7.03;;;5.50;;
53207;SDS011;39093;52.788;6.940;2022-08-19T10:47:17;6.65;;;5.25;;
53207;SDS011;39093;52.788;6.940;2022-08-19T10:49:54;6.63;;;5.60;;
53207;SDS011;39093;52.788;6.940;2022-08-19T10:52:42;8.48;;;6.10;;
53207;SDS011;39093;52.788;6.940;2022-08-19T10:55:16;8.82;;;6.22;;
53207;SDS011;39093;52.788;6.940;2022-08-19T10:58:04;6.30;;;5.68;;
53207;SDS011;39093;52.788;6.940;2022-08-19T11:00:37;6.57;;;5.88;;
53207;SDS011;39093;52.788;6.940;2022-08-19T11:03:04;9.35;;;6.68;;
53207;SDS011;39093;52.788;6.940;2022-08-19T11:05:30;8.00;;;5.38;;
53207;SDS011;39093;52.788;6.940;2022-08-19T11:08:05;7.32;;;5.60;;
53207;SDS011;39093;52.788;6.940;2022-08-19T11:10:50;5.05;;;4.65;;
53207;SDS011;39093;52.788;6.940;2022-08-19T11:13:23;7.07;;;4.53;;
53207;SDS011;39093;52.788;6.940;2022-08-19T11:15:57;6.22;;;4.95;;
53207;SDS011;39093;52.788;6.940;2022-08-19T11:18:37;6.32;;;5.22;;
53207;SDS011;39093;52.788;6.940;2022-08-19T11:21:09;5.10;;;4.60;;
53207;SDS011;39093;52.788;6.940;2022-08-19T11:23:36;5.73;;;4.80;;
53207;SDS011;39093;52.788;6.940;2022-08-19T11:26:03;5.47;;;4.28;;
53207;SDS011;39093;52.788;6.940;2022-08-19T11:28:30;6.18;;;5.22;;
53207;SDS011;39093;52.788;6.940;2022-08-19T11:30:57;5.18;;;4.68;;
53207;SDS011;39093;52.788;6.940;2022-08-19T11:33:24;5.65;;;4.35;;
53207;SDS011;39093;52.788;6.940;2022-08-19T11:35:52;7.10;;;4.47;;
53207;SDS011;39093;52.788;6.940;2022-08-19T11:38:20;8.05;;;3.40;;
53207;SDS011;39093;52.788;6.940;2022-08-19T11:40:53;7.30;;;5.50;;
53207;SDS011;39093;52.788;6.940;2022-08-19T11:43:21;6.68;;;5.97;;
53207;SDS011;39093;52.788;6.940;2022-08-19T11:45:48;7.78;;;5.30;;
53207;SDS011;39093;52.788;6.940;2022-08-19T11:48:15;6.50;;;4.53;;
53207;SDS011;39093;52.788;6.940;2022-08-19T11:50:42;5.63;;;4.05;;
53207;SDS011;39093;52.788;6.940;2022-08-19T11:53:09;5.38;;;4.22;;
53207;SDS011;39093;52.788;6.940;2022-08-19T11:55:37;4.43;;;4.00;;
53207;SDS011;39093;52.788;6.940;2022-08-19T11:58:09;7.90;;;5.90;;
53207;SDS011;39093;52.788;6.940;2022-08-19T12:00:44;7.03;;;6.03;;
53207;SDS011;39093;52.788;6.940;2022-08-19T12:03:12;6.28;;;5.68;;
53207;SDS011;39093;52.788;6.940;2022-08-19T12:05:40;8.20;;;5.63;;
53207;SDS011;39093;52.788;6.940;2022-08-19T12:08:07;6.25;;;4.88;;
53207;SDS011;39093;52.788;6.940;2022-08-19T12:10:35;11.13;;;4.38;;
53207;SDS011;39093;52.788;6.940;2022-08-19T12:13:02;4.93;;;4.45;;
53207;SDS011;39093;52.788;6.940;2022-08-19T12:15:29;5.05;;;4.55;;
53207;SDS011;39093;52.788;6.940;2022-08-19T12:18:03;4.78;;;4.28;;
53207;SDS011;39093;52.788;6.940;2022-08-19T12:20:30;4.95;;;4.45;;
53207;SDS011;39093;52.788;6.940;2022-08-19T12:23:01;6.68;;;4.50;;
53207;SDS011;39093;52.788;6.940;2022-08-19T12:25:29;6.80;;;4.88;;
53207;SDS011;39093;52.788;6.940;2022-08-19T12:27:57;6.97;;;4.97;;
53207;SDS011;39093;52.788;6.940;2022-08-19T12:30:25;5.78;;;4.88;;
53207;SDS011;39093;52.788;6.940;2022-08-19T12:32:53;6.90;;;5.25;;
53207;SDS011;39093;52.788;6.940;2022-08-19T12:35:20;5.78;;;5.07;;
53207;SDS011;39093;52.788;6.940;2022-08-19T12:37:47;8.75;;;5.57;;
53207;SDS011;39093;52.788;6.940;2022-08-19T12:40:23;9.88;;;5.55;;
53207;SDS011;39093;52.788;6.940;2022-08-19T12:42:52;10.07;;;5.03;;
53207;SDS011;39093;52.788;6.940;2022-08-19T12:45:19;9.02;;;6.30;;
53207;SDS011;39093;52.788;6.940;2022-08-19T12:47:47;7.00;;;5.60;;
53207;SDS011;39093;52.788;6.940;2022-08-19T12:50:15;6.18;;;4.90;;
53207;SDS011;39093;52.788;6.940;2022-08-19T12:52:42;7.95;;;5.20;;
53207;SDS011;39093;52.788;6.940;2022-08-19T12:55:09;7.38;;;4.88;;
53207;SDS011;39093;52.788;6.940;2022-08-19T12:57:37;6.30;;;5.05;;
53207;SDS011;39093;52.788;6.940;2022-08-19T13:00:06;8.77;;;5.72;;
53207;SDS011;39093;52.788;6.940;2022-08-19T13:02:40;6.35;;;5.30;;
53207;SDS011;39093;52.788;6.940;2022-08-19T13:05:11;7.53;;;5.22;;
53207;SDS011;39093;52.788;6.940;2022-08-19T13:07:40;8.32;;;5.53;;
53207;SDS011;39093;52.788;6.940;2022-08-19T13:10:08;7.25;;;5.03;;
53207;SDS011;39093;52.788;6.940;2022-08-19T13:12:38;6.47;;;5.10;;
53207;SDS011;39093;52.788;6.940;2022-08-19T13:15:07;8.23;;;5.20;;
53207;SDS011;39093;52.788;6.940;2022-08-19T13:17:36;7.72;;;5.78;;
53207;SDS011;39093;52.788;6.940;2022-08-19T13:20:06;5.95;;;5.35;;
53207;SDS011;39093;52.788;6.940;2022-08-19T13:22:35;6.50;;;5.03;;
53207;SDS011;39093;52.788;6.940;2022-08-19T13:25:02;5.97;;;5.38;;
53207;SDS011;39093;52.788;6.940;2022-08-19T13:27:31;9.05;;;4.95;;
53207;SDS011;39093;52.788;6.940;2022-08-19T13:29:58;9.27;;;5.30;;
53207;SDS011;39093;52.788;6.940;2022-08-19T13:32:44;6.13;;;4.65;;
53207;SDS011;39093;52.788;6.940;2022-08-19T13:35:30;11.10;;;4.75;;
53207;SDS011;39093;52.788;6.940;2022-08-19T13:37:57;7.00;;;4.70;;
53207;SDS011;39093;52.788;6.940;2022-08-19T13:40:24;5.25;;;4.75;;
53207;SDS011;39093;52.788;6.940;2022-08-19T13:42:53;5.35;;;4.50;;
53207;SDS011;39093;52.788;6.940;2022-08-19T13:45:22;5.38;;;3.70;;
53207;SDS011;39093;52.788;6.940;2022-08-19T13:47:51;5.00;;;4.40;;
53207;SDS011;39093;52.788;6.940;2022-08-19T13:50:26;4.97;;;4.45;;
53207;SDS011;39093;52.788;6.940;2022-08-19T13:52:55;5.20;;;4.53;;
53207;SDS011;39093;52.788;6.940;2022-08-19T13:55:23;6.47;;;3.70;;
53207;SDS011;39093;52.788;6.940;2022-08-19T13:57:51;3.75;;;3.28;;
53207;SDS011;39093;52.788;6.940;2022-08-19T14:00:23;3.90;;;3.35;;
53207;SDS011;39093;52.788;6.940;2022-08-19T14:02:53;6.85;;;3.45;;
53207;SDS011;39093;52.788;6.940;2022-08-19T14:05:22;6.25;;;2.85;;
53207;SDS011;39093;52.788;6.940;2022-08-19T14:07:50;5.25;;;3.83;;
53207;SDS011;39093;52.788;6.940;2022-08-19T14:10:18;5.50;;;3.85;;
53207;SDS011;39093;52.788;6.940;2022-08-19T14:12:46;6.55;;;4.07;;
53207;SDS011;39093;52.788;6.940;2022-08-19T14:15:14;5.90;;;4.13;;
53207;SDS011;39093;52.788;6.940;2022-08-19T14:17:43;11.32;;;4.90;;
53207;SDS011;39093;52.788;6.940;2022-08-19T14:20:11;5.45;;;4.35;;
53207;SDS011;39093;52.788;6.940;2022-08-19T14:22:44;4.40;;;4.00;;
53207;SDS011;39093;52.788;6.940;2022-08-19T14:25:17;4.47;;;3.88;;
53207;SDS011;39093;52.788;6.940;2022-08-19T14:27:47;5.25;;;3.25;;
53207;SDS011;39093;52.788;6.940;2022-08-19T14:30:16;6.80;;;3.45;;
53207;SDS011;39093;52.788;6.940;2022-08-19T14:32:46;4.45;;;3.55;;
53207;SDS011;39093;52.788;6.940;2022-08-19T14:35:14;4.40;;;4.00;;
53207;SDS011;39093;52.788;6.940;2022-08-19T14:37:42;4.72;;;4.03;;
53207;SDS011;39093;52.788;6.940;2022-08-19T14:40:12;5.50;;;4.75;;
53207;SDS011;39093;52.788;6.940;2022-08-19T14:42:42;5.10;;;4.35;;
53207;SDS011;39093;52.788;6.940;2022-08-19T14:45:10;4.45;;;3.60;;
53207;SDS011;39093;52.788;6.940;2022-08-19T14:47:37;3.83;;;3.53;;
53207;SDS011;39093;52.788;6.940;2022-08-19T14:50:07;3.83;;;3.45;;
53207;SDS011;39093;52.788;6.940;2022-08-19T14:52:44;4.10;;;3.20;;
53207;SDS011;39093;52.788;6.940;2022-08-19T14:55:12;5.05;;;3.47;;
53207;SDS011;39093;52.788;6.940;2022-08-19T14:57:41;4.35;;;3.95;;
53207;SDS011;39093;52.788;6.940;2022-08-19T15:00:08;8.52;;;4.70;;
53207;SDS011;39093;52.788;6.940;2022-08-19T15:02:40;6.38;;;4.40;;
53207;SDS011;39093;52.788;6.940;2022-08-19T15:05:08;6.63;;;4.65;;
53207;SDS011;39093;52.788;6.940;2022-08-19T15:07:35;5.63;;;4.32;;
53207;SDS011;39093;52.788;6.940;2022-08-19T15:10:03;4.80;;;3.50;;